sensor_id;sensor_type;location;lat;lon;timestamp;temperature;humidity
73643;DHT22;61938;48.652;9.292;2023-07-30T12:35:53;24.40;99.90
73643;DHT22;61938;48.652;9.292;2023-07-30T12:38:19;23.90;99.90
73643;DHT22;61938;48.652;9.292;2023-07-30T12:40:44;23.80;99.90
73643;DHT22;61938;48.652;9.292;2023-07-30T12:43:10;23.90;99.90
73643;DHT22;61938;48.652;9.292;2023-07-30T12:45:35;23.90;99.90
73643;DHT22;61938;48.652;9.292;2023-07-30T12:48:01;23.80;99.90
73643;DHT22;61938;48.652;9.292;2023-07-30T12:50:27;23.40;99.90
73643;DHT22;61938;48.652;9.292;2023-07-30T12:52:52;23.20;99.90
73643;DHT22;61938;48.652;9.292;2023-07-30T12:55:18;23.30;99.90
73643;DHT22;61938;48.652;9.292;2023-07-30T12:57:43;23.30;99.90
73643;DHT22;61938;48.652;9.292;2023-07-30T13:00:09;23.60;99.90
73643;DHT22;61938;48.652;9.292;2023-07-30T13:02:35;23.30;99.90
73643;DHT22;61938;48.652;9.292;2023-07-30T13:05:01;23.00;99.90
73643;DHT22;61938;48.652;9.292;2023-07-30T13:07:27;22.70;99.90
73643;DHT22;61938;48.652;9.292;2023-07-30T13:10:09;22.40;99.90
73643;DHT22;61938;48.652;9.292;2023-07-30T13:12:35;22.20;99.90
73643;DHT22;61938;48.652;9.292;2023-07-30T13:15:01;22.20;99.90
73643;DHT22;61938;48.652;9.292;2023-07-30T13:17:27;22.10;99.90
73643;DHT22;61938;48.652;9.292;2023-07-30T13:19:52;22.30;99.90
73643;DHT22;61938;48.652;9.292;2023-07-30T13:22:18;23.00;99.90
73643;DHT22;61938;48.652;9.292;2023-07-30T13:24:43;23.50;99.90
73643;DHT22;61938;48.652;9.292;2023-07-30T13:27:09;24.00;99.90
73643;DHT22;61938;48.652;9.292;2023-07-30T13:29:34;24.10;99.90
73643;DHT22;61938;48.652;9.292;2023-07-30T13:32:00;24.20;99.90
73643;DHT22;61938;48.652;9.292;2023-07-30T13:34:25;24.30;99.90
73643;DHT22;61938;48.652;9.292;2023-07-30T13:36:51;24.10;99.90
73643;DHT22;61938;48.652;9.292;2023-07-30T13:39:17;23.90;99.90
73643;DHT22;61938;48.652;9.292;2023-07-30T13:41:42;23.50;99.90
73643;DHT22;61938;48.652;9.292;2023-07-30T13:44:08;23.40;99.90
73643;DHT22;61938;48.652;9.292;2023-07-30T13:46:33;23.40;99.90
73643;DHT22;61938;48.652;9.292;2023-07-30T13:48:59;23.40;99.90
73643;DHT22;61938;48.652;9.292;2023-07-30T13:51:25;23.90;99.90
73643;DHT22;61938;48.652;9.292;2023-07-30T13:53:52;24.10;99.90
73643;DHT22;61938;48.652;9.292;2023-07-30T13:56:17;24.20;99.90
73643;DHT22;61938;48.652;9.292;2023-07-30T13:58:43;24.50;99.90
73643;DHT22;61938;48.652;9.292;2023-07-30T14:01:08;24.40;99.90
73643;DHT22;61938;48.652;9.292;2023-07-30T14:03:35;24.30;99.90
73643;DHT22;61938;48.652;9.292;2023-07-30T14:06:00;24.10;99.90
73643;DHT22;61938;48.652;9.292;2023-07-30T14:08:26;23.90;99.90
73643;DHT22;61938;48.652;9.292;2023-07-30T14:10:51;23.80;99.90
73643;DHT22;61938;48.652;9.292;2023-07-30T14:13:17;23.80;99.90
73643;DHT22;61938;48.652;9.292;2023-07-30T14:15:43;23.90;99.90
73643;DHT22;61938;48.652;9.292;2023-07-30T14:18:09;24.00;99.90
73643;DHT22;61938;48.652;9.292;2023-07-30T14:20:35;23.80;99.90
73643;DHT22;61938;48.652;9.292;2023-07-30T14:23:03;23.90;99.90
73643;DHT22;61938;48.652;9.292;2023-07-30T14:25:29;24.10;99.90
73643;DHT22;61938;48.652;9.292;2023-07-30T14:27:55;23.90;99.90
73643;DHT22;61938;48.652;9.292;2023-07-30T14:30:20;23.70;99.90
73643;DHT22;61938;48.652;9.292;2023-07-30T14:32:46;23.40;99.90
73643;DHT22;61938;48.652;9.292;2023-07-30T14:35:11;23.20;99.90
73643;DHT22;61938;48.652;9.292;2023-07-30T14:37:37;23.20;99.90
73643;DHT22;61938;48.652;9.292;2023-07-30T14:40:02;23.40;99.90
73643;DHT22;61938;48.652;9.292;2023-07-30T14:42:28;23.50;99.90
73643;DHT22;61938;48.652;9.292;2023-07-30T14:44:53;23.70;99.90
73643;DHT22;61938;48.652;9.292;2023-07-30T14:47:19;23.90;99.90
73643;DHT22;61938;48.652;9.292;2023-07-30T14:49:47;24.20;99.90
73643;DHT22;61938;48.652;9.292;2023-07-30T14:52:13;24.20;99.90
73643;DHT22;61938;48.652;9.292;2023-07-30T14:54:38;24.00;99.90
73643;DHT22;61938;48.652;9.292;2023-07-30T14:57:05;23.80;99.90
73643;DHT22;61938;48.652;9.292;2023-07-30T14:59:30;23.50;99.90
73643;DHT22;61938;48.652;9.292;2023-07-30T15:01:56;23.50;99.90
73643;DHT22;61938;48.652;9.292;2023-07-30T15:04:21;23.30;99.90
73643;DHT22;61938;48.652;9.292;2023-07-30T15:06:47;23.20;99.90
73643;DHT22;61938;48.652;9.292;2023-07-30T15:09:12;23.00;99.90
73643;DHT22;61938;48.652;9.292;2023-07-30T15:11:38;23.10;99.90
73643;DHT22;61938;48.652;9.292;2023-07-30T15:14:03;23.20;99.90
73643;DHT22;61938;48.652;9.292;2023-07-30T15:16:29;23.20;99.90
73643;DHT22;61938;48.652;9.292;2023-07-30T15:18:54;23.00;99.90
73643;DHT22;61938;48.652;9.292;2023-07-30T15:21:20;22.70;99.90
73643;DHT22;61938;48.652;9.292;2023-07-30T15:23:45;22.80;99.90
73643;DHT22;61938;48.652;9.292;2023-07-30T15:26:11;22.70;99.90
73643;DHT22;61938;48.652;9.292;2023-07-30T15:28:36;22.50;99.90
73643;DHT22;61938;48.652;9.292;2023-07-30T15:31:02;22.40;99.90
73643;DHT22;61938;48.652;9.292;2023-07-30T15:33:27;22.10;99.90
73643;DHT22;61938;48.652;9.292;2023-07-30T15:35:53;22.10;99.90
73643;DHT22;61938;48.652;9.292;2023-07-30T15:38:18;22.00;99.90
73643;DHT22;61938;48.652;9.292;2023-07-30T15:40:44;21.90;99.90
73643;DHT22;61938;48.652;9.292;2023-07-30T15:43:09;22.10;99.90
73643;DHT22;61938;48.652;9.292;2023-07-30T15:45:37;22.30;99.90
73643;DHT22;61938;48.652;9.292;2023-07-30T15:48:08;22.40;99.90
73643;DHT22;61938;48.652;9.292;2023-07-30T15:50:34;22.40;99.90
73643;DHT22;61938;48.652;9.292;2023-07-30T15:52:59;22.20;99.90
73643;DHT22;61938;48.652;9.292;2023-07-30T15:55:25;22.30;99.90
73643;DHT22;61938;48.652;9.292;2023-07-30T15:57:50;22.30;99.90
73643;DHT22;61938;48.652;9.292;2023-07-30T16:00:18;22.40;99.90
73643;DHT22;61938;48.652;9.292;2023-07-30T16:02:44;22.30;99.90
73643;DHT22;61938;48.652;9.292;2023-07-30T16:05:11;22.30;99.90
73643;DHT22;61938;48.652;9.292;2023-07-30T16:07:36;22.10;99.90
73643;DHT22;61938;48.652;9.292;2023-07-30T16:10:03;22.00;99.90
73643;DHT22;61938;48.652;9.292;2023-07-30T16:12:29;22.00;99.90
73643;DHT22;61938;48.652;9.292;2023-07-30T16:14:55;22.00;99.90
73643;DHT22;61938;48.652;9.292;2023-07-30T16:17:20;21.80;99.90
73643;DHT22;61938;48.652;9.292;2023-07-30T16:19:46;21.70;99.90
73643;DHT22;61938;48.652;9.292;2023-07-30T16:22:11;21.70;99.90
73643;DHT22;61938;48.652;9.292;2023-07-30T16:24:37;21.60;99.90
73643;DHT22;61938;48.652;9.292;2023-07-30T16:27:03;21.40;99.90
73643;DHT22;61938;48.652;9.292;2023-07-30T16:29:28;21.40;99.90
73643;DHT22;61938;48.652;9.292;2023-07-30T16:31:54;21.50;99.90
73643;DHT22;61938;48.652;9.292;2023-07-30T16:34:19;21.40;99.90
73643;DHT22;61938;48.652;9.292;2023-07-30T16:36:45;21.40;99.90
73643;DHT22;61938;48.652;9.292;2023-07-30T16:39:11;21.30;99.90
73643;DHT22;61938;48.652;9.292;2023-07-30T16:41:37;21.20;99.90
73643;DHT22;61938;48.652;9.292;2023-07-30T16:44:03;21.10;99.90
73643;DHT22;61938;48.652;9.292;2023-07-30T16:46:28;21.10;99.90
73643;DHT22;61938;48.652;9.292;2023-07-30T16:48:55;21.10;99.90
73643;DHT22;61938;48.652;9.292;2023-07-30T16:51:21;21.00;99.90
73643;DHT22;61938;48.652;9.292;2023-07-30T16:53:46;20.80;99.90
73643;DHT22;61938;48.652;9.292;2023-07-30T16:56:13;20.60;99.90
73643;DHT22;61938;48.652;9.292;2023-07-30T16:58:39;20.40;99.90
73643;DHT22;61938;48.652;9.292;2023-07-30T17:01:05;20.40;99.90
73643;DHT22;61938;48.652;9.292;2023-07-30T17:03:32;20.40;99.90
73643;DHT22;61938;48.652;9.292;2023-07-30T17:05:58;20.40;99.90
73643;DHT22;61938;48.652;9.292;2023-07-30T17:08:24;20.50;99.90
73643;DHT22;61938;48.652;9.292;2023-07-30T17:10:50;20.40;99.90
73643;DHT22;61938;48.652;9.292;2023-07-30T17:13:15;20.30;99.90
73643;DHT22;61938;48.652;9.292;2023-07-30T17:15:41;20.30;99.90
73643;DHT22;61938;48.652;9.292;2023-07-30T17:18:06;20.30;99.90
73643;DHT22;61938;48.652;9.292;2023-07-30T17:20:32;20.30;99.90
73643;DHT22;61938;48.652;9.292;2023-07-30T17:22:58;20.30;99.90
73643;DHT22;61938;48.652;9.292;2023-07-30T17:25:24;20.30;99.90
73643;DHT22;61938;48.652;9.292;2023-07-30T17:27:49;20.40;99.90
73643;DHT22;61938;48.652;9.292;2023-07-30T17:30:15;20.40;99.90
73643;DHT22;61938;48.652;9.292;2023-07-30T17:32:41;20.40;99.90
73643;DHT22;61938;48.652;9.292;2023-07-30T17:35:06;20.40;99.90
73643;DHT22;61938;48.652;9.292;2023-07-30T17:37:32;20.30;99.90
73643;DHT22;61938;48.652;9.292;2023-07-30T17:39:58;20.30;99.90
73643;DHT22;61938;48.652;9.292;2023-07-30T17:42:23;20.10;99.90
73643;DHT22;61938;48.652;9.292;2023-07-30T17:44:50;20.30;99.90
73643;DHT22;61938;48.652;9.292;2023-07-30T17:47:19;20.00;99.90
73643;DHT22;61938;48.652;9.292;2023-07-30T17:49:47;19.90;99.90
73643;DHT22;61938;48.652;9.292;2023-07-30T17:52:14;19.80;99.90
73643;DHT22;61938;48.652;9.292;2023-07-30T17:54:40;19.80;99.90
73643;DHT22;61938;48.652;9.292;2023-07-30T17:57:06;19.60;99.90
73643;DHT22;61938;48.652;9.292;2023-07-30T17:59:31;19.60;99.90
73643;DHT22;61938;48.652;9.292;2023-07-30T18:01:57;19.50;99.90
73643;DHT22;61938;48.652;9.292;2023-07-30T18:04:22;19.50;99.90
73643;DHT22;61938;48.652;9.292;2023-07-30T18:06:48;19.40;99.90
73643;DHT22;61938;48.652;9.292;2023-07-30T18:09:13;19.30;99.90
73643;DHT22;61938;48.652;9.292;2023-07-30T18:11:39;19.30;99.90
73643;DHT22;61938;48.652;9.292;2023-07-30T18:14:06;19.20;99.90
73643;DHT22;61938;48.652;9.292;2023-07-30T18:16:32;19.20;99.90
73643;DHT22;61938;48.652;9.292;2023-07-30T18:18:58;19.20;99.90
73643;DHT22;61938;48.652;9.292;2023-07-30T18:21:23;19.10;99.90
73643;DHT22;61938;48.652;9.292;2023-07-30T18:23:51;19.00;99.90
73643;DHT22;61938;48.652;9.292;2023-07-30T18:26:16;19.00;99.90
73643;DHT22;61938;48.652;9.292;2023-07-30T18:28:41;18.90;99.90
73643;DHT22;61938;48.652;9.292;2023-07-30T18:31:07;18.80;99.90
73643;DHT22;61938;48.652;9.292;2023-07-30T18:33:33;18.70;99.90
73643;DHT22;61938;48.652;9.292;2023-07-30T18:35:59;18.70;99.90
73643;DHT22;61938;48.652;9.292;2023-07-30T18:38:25;18.60;99.90
73643;DHT22;61938;48.652;9.292;2023-07-30T18:40:50;18.60;99.90
73643;DHT22;61938;48.652;9.292;2023-07-30T18:43:16;18.50;99.90
73643;DHT22;61938;48.652;9.292;2023-07-30T18:45:46;18.40;99.90
73643;DHT22;61938;48.652;9.292;2023-07-30T18:48:12;18.40;99.90
73643;DHT22;61938;48.652;9.292;2023-07-30T18:50:38;18.30;99.90
73643;DHT22;61938;48.652;9.292;2023-07-30T18:53:03;18.40;99.90
73643;DHT22;61938;48.652;9.292;2023-07-30T18:55:29;18.40;99.90
73643;DHT22;61938;48.652;9.292;2023-07-30T18:57:55;18.30;99.90
73643;DHT22;61938;48.652;9.292;2023-07-30T19:00:20;18.30;99.90
73643;DHT22;61938;48.652;9.292;2023-07-30T19:02:45;18.30;99.90
73643;DHT22;61938;48.652;9.292;2023-07-30T19:05:11;18.20;99.90
73643;DHT22;61938;48.652;9.292;2023-07-30T19:07:36;18.20;99.90
73643;DHT22;61938;48.652;9.292;2023-07-30T19:10:02;18.10;99.90
73643;DHT22;61938;48.652;9.292;2023-07-30T19:12:28;18.10;99.90
73643;DHT22;61938;48.652;9.292;2023-07-30T19:14:53;18.00;99.90
73643;DHT22;61938;48.652;9.292;2023-07-30T19:17:19;18.00;99.90
73643;DHT22;61938;48.652;9.292;2023-07-30T19:19:47;18.00;99.90
73643;DHT22;61938;48.652;9.292;2023-07-30T19:22:13;17.90;99.90
73643;DHT22;61938;48.652;9.292;2023-07-30T19:24:39;17.80;99.90
73643;DHT22;61938;48.652;9.292;2023-07-30T19:27:05;17.70;99.90
73643;DHT22;61938;48.652;9.292;2023-07-30T19:29:31;17.60;99.90
73643;DHT22;61938;48.652;9.292;2023-07-30T19:31:56;17.50;99.90
73643;DHT22;61938;48.652;9.292;2023-07-30T19:34:22;17.40;99.90
73643;DHT22;61938;48.652;9.292;2023-07-30T19:36:47;17.40;99.90
73643;DHT22;61938;48.652;9.292;2023-07-30T19:39:13;17.30;99.90
73643;DHT22;61938;48.652;9.292;2023-07-30T19:41:38;17.30;99.90
73643;DHT22;61938;48.652;9.292;2023-07-30T19:44:04;17.20;99.90
73643;DHT22;61938;48.652;9.292;2023-07-30T19:46:30;17.20;99.90
73643;DHT22;61938;48.652;9.292;2023-07-30T19:48:56;17.00;99.90
73643;DHT22;61938;48.652;9.292;2023-07-30T19:51:22;17.00;99.90
73643;DHT22;61938;48.652;9.292;2023-07-30T19:53:47;17.00;99.90
73643;DHT22;61938;48.652;9.292;2023-07-30T19:56:13;16.90;99.90
73643;DHT22;61938;48.652;9.292;2023-07-30T19:58:38;16.90;99.90
73643;DHT22;61938;48.652;9.292;2023-07-30T20:01:04;17.00;99.90
73643;DHT22;61938;48.652;9.292;2023-07-30T20:03:30;16.90;99.90
73643;DHT22;61938;48.652;9.292;2023-07-30T20:06:06;17.00;99.90
73643;DHT22;61938;48.652;9.292;2023-07-30T20:08:32;16.90;99.90
73643;DHT22;61938;48.652;9.292;2023-07-30T20:11:00;16.90;99.90
73643;DHT22;61938;48.652;9.292;2023-07-30T20:13:26;16.80;99.90
73643;DHT22;61938;48.652;9.292;2023-07-30T20:15:53;16.80;99.90
73643;DHT22;61938;48.652;9.292;2023-07-30T20:18:18;16.70;99.90
73643;DHT22;61938;48.652;9.292;2023-07-30T20:20:44;16.70;99.90
73643;DHT22;61938;48.652;9.292;2023-07-30T20:23:10;16.60;99.90
73643;DHT22;61938;48.652;9.292;2023-07-30T20:25:37;16.50;99.90
73643;DHT22;61938;48.652;9.292;2023-07-30T20:28:04;16.50;99.90
73643;DHT22;61938;48.652;9.292;2023-07-30T20:30:31;16.50;99.90
73643;DHT22;61938;48.652;9.292;2023-07-30T20:32:57;16.40;99.90
73643;DHT22;61938;48.652;9.292;2023-07-30T20:35:22;16.30;99.90
73643;DHT22;61938;48.652;9.292;2023-07-30T20:37:48;16.20;99.90
73643;DHT22;61938;48.652;9.292;2023-07-30T20:40:13;16.10;99.90
73643;DHT22;61938;48.652;9.292;2023-07-30T20:42:39;16.00;99.90
73643;DHT22;61938;48.652;9.292;2023-07-30T20:45:05;16.00;99.90
73643;DHT22;61938;48.652;9.292;2023-07-30T20:47:31;15.90;99.90
73643;DHT22;61938;48.652;9.292;2023-07-30T20:49:56;15.80;99.90
73643;DHT22;61938;48.652;9.292;2023-07-30T20:52:24;15.80;99.90
73643;DHT22;61938;48.652;9.292;2023-07-30T20:54:49;16.30;99.90
73643;DHT22;61938;48.652;9.292;2023-07-30T20:57:14;15.80;99.90
73643;DHT22;61938;48.652;9.292;2023-07-30T20:59:40;15.70;99.90
73643;DHT22;61938;48.652;9.292;2023-07-30T21:02:06;15.70;99.90
73643;DHT22;61938;48.652;9.292;2023-07-30T21:04:31;15.70;99.90
73643;DHT22;61938;48.652;9.292;2023-07-30T21:06:57;15.60;99.90
73643;DHT22;61938;48.652;9.292;2023-07-30T21:09:22;15.40;99.90
73643;DHT22;61938;48.652;9.292;2023-07-30T21:11:48;15.40;99.90
73643;DHT22;61938;48.652;9.292;2023-07-30T21:14:14;15.30;99.90
73643;DHT22;61938;48.652;9.292;2023-07-30T21:16:39;15.20;99.90
73643;DHT22;61938;48.652;9.292;2023-07-30T21:19:05;15.20;99.90
73643;DHT22;61938;48.652;9.292;2023-07-30T21:21:30;15.10;99.90
73643;DHT22;61938;48.652;9.292;2023-07-30T21:23:56;15.00;99.90
73643;DHT22;61938;48.652;9.292;2023-07-30T21:26:21;14.90;99.90
73643;DHT22;61938;48.652;9.292;2023-07-30T21:28:47;15.00;99.90
73643;DHT22;61938;48.652;9.292;2023-07-30T21:31:14;14.90;99.90
73643;DHT22;61938;48.652;9.292;2023-07-30T21:33:40;14.90;99.90
73643;DHT22;61938;48.652;9.292;2023-07-30T21:36:05;14.90;99.90
73643;DHT22;61938;48.652;9.292;2023-07-30T21:38:31;14.80;99.90
73643;DHT22;61938;48.652;9.292;2023-07-30T21:40:56;14.70;99.90
73643;DHT22;61938;48.652;9.292;2023-07-30T21:43:22;14.70;99.90
73643;DHT22;61938;48.652;9.292;2023-07-30T21:45:52;14.60;99.90
73643;DHT22;61938;48.652;9.292;2023-07-30T21:48:18;14.70;99.90
73643;DHT22;61938;48.652;9.292;2023-07-30T21:50:44;14.60;99.90
73643;DHT22;61938;48.652;9.292;2023-07-30T21:53:10;14.70;99.90
73643;DHT22;61938;48.652;9.292;2023-07-30T21:55:36;14.60;99.90
73643;DHT22;61938;48.652;9.292;2023-07-30T21:58:01;14.50;99.90
73643;DHT22;61938;48.652;9.292;2023-07-30T22:00:27;14.40;99.90
73643;DHT22;61938;48.652;9.292;2023-07-30T22:02:53;14.40;99.90
73643;DHT22;61938;48.652;9.292;2023-07-30T22:05:23;14.30;99.90
73643;DHT22;61938;48.652;9.292;2023-07-30T22:07:48;14.30;99.90
73643;DHT22;61938;48.652;9.292;2023-07-30T22:10:14;14.30;99.90
73643;DHT22;61938;48.652;9.292;2023-07-30T22:12:41;14.20;99.90
73643;DHT22;61938;48.652;9.292;2023-07-30T22:15:07;14.20;99.90
73643;DHT22;61938;48.652;9.292;2023-07-30T22:17:34;14.20;99.90
73643;DHT22;61938;48.652;9.292;2023-07-30T22:20:00;14.30;99.90
73643;DHT22;61938;48.652;9.292;2023-07-30T22:22:26;14.30;99.90
73643;DHT22;61938;48.652;9.292;2023-07-30T22:24:51;14.20;99.90
73643;DHT22;61938;48.652;9.292;2023-07-30T22:27:17;14.20;99.90
73643;DHT22;61938;48.652;9.292;2023-07-30T22:29:42;14.20;99.90
73643;DHT22;61938;48.652;9.292;2023-07-30T22:32:08;14.10;99.90
73643;DHT22;61938;48.652;9.292;2023-07-30T22:34:33;14.00;99.90
73643;DHT22;61938;48.652;9.292;2023-07-30T22:36:59;14.00;99.90
73643;DHT22;61938;48.652;9.292;2023-07-30T22:39:24;13.90;99.90
73643;DHT22;61938;48.652;9.292;2023-07-30T22:41:50;13.90;99.90
73643;DHT22;61938;48.652;9.292;2023-07-30T22:44:15;13.90;99.90
73643;DHT22;61938;48.652;9.292;2023-07-30T22:46:41;13.80;99.90
73643;DHT22;61938;48.652;9.292;2023-07-30T22:49:06;13.80;99.90
73643;DHT22;61938;48.652;9.292;2023-07-30T22:51:32;13.70;99.90
73643;DHT22;61938;48.652;9.292;2023-07-30T22:53:57;13.60;99.90
73643;DHT22;61938;48.652;9.292;2023-07-30T22:56:23;13.50;99.90
73643;DHT22;61938;48.652;9.292;2023-07-30T22:58:48;13.50;99.90
73643;DHT22;61938;48.652;9.292;2023-07-30T23:01:14;13.40;99.90
73643;DHT22;61938;48.652;9.292;2023-07-30T23:03:40;13.40;99.90
73643;DHT22;61938;48.652;9.292;2023-07-30T23:06:06;13.30;99.90
73643;DHT22;61938;48.652;9.292;2023-07-30T23:08:31;13.30;99.90
73643;DHT22;61938;48.652;9.292;2023-07-30T23:10:57;13.30;99.90
73643;DHT22;61938;48.652;9.292;2023-07-30T23:13:22;13.30;99.90
73643;DHT22;61938;48.652;9.292;2023-07-30T23:15:48;13.30;99.90
73643;DHT22;61938;48.652;9.292;2023-07-30T23:18:14;13.20;99.90
73643;DHT22;61938;48.652;9.292;2023-07-30T23:20:39;13.20;99.90
73643;DHT22;61938;48.652;9.292;2023-07-30T23:23:04;13.20;99.90
73643;DHT22;61938;48.652;9.292;2023-07-30T23:25:30;13.20;99.90
73643;DHT22;61938;48.652;9.292;2023-07-30T23:27:55;13.30;99.90
73643;DHT22;61938;48.652;9.292;2023-07-30T23:30:21;13.30;99.90
73643;DHT22;61938;48.652;9.292;2023-07-30T23:32:46;13.30;99.90
73643;DHT22;61938;48.652;9.292;2023-07-30T23:35:12;13.20;99.90
73643;DHT22;61938;48.652;9.292;2023-07-30T23:37:39;13.20;99.90
73643;DHT22;61938;48.652;9.292;2023-07-30T23:40:05;13.20;99.90
73643;DHT22;61938;48.652;9.292;2023-07-30T23:42:31;13.20;99.90
73643;DHT22;61938;48.652;9.292;2023-07-30T23:44:56;13.30;99.90
73643;DHT22;61938;48.652;9.292;2023-07-30T23:47:22;13.40;99.90
73643;DHT22;61938;48.652;9.292;2023-07-30T23:49:47;13.40;99.90
73643;DHT22;61938;48.652;9.292;2023-07-30T23:52:13;13.40;99.90
73643;DHT22;61938;48.652;9.292;2023-07-30T23:54:38;13.40;99.90
73643;DHT22;61938;48.652;9.292;2023-07-30T23:57:04;13.40;99.90
73643;DHT22;61938;48.652;9.292;2023-07-30T23:59:29;13.40;99.90
